Time;durP1;ratioP1;P1;durP2;ratioP2;P2;SDS_P1;SDS_P2;PMS_P1;PMS_P2;Temp;Humidity;BMP_temperature;BMP_pressure;BME280_temperature;BME280_humidity;BME280_pressure;Samples;Min_cycle;Max_cycle;Signal;HPM_P1;HPM_P2
2024/01/11 00:02:25;;;;;;;56.13;27.25;;;;;;;;;;4869707;29;20029;-93
2024/01/11 00:04:51;;;;;;;53.13;27.23;;;;;;;;;;4870237;29;20120;-91
2024/01/11 00:07:18;;;;;;;61.88;27.95;;;;;;;;;;4875445;29;20044;-92
2024/01/11 00:09:44;;;;;;;52.75;26.73;;;;;;;;;;4871872;29;20044;-92
2024/01/11 00:12:10;;;;;;;52.70;26.50;;;;;;;;;;4870177;29;20028;-92
2024/01/11 00:14:36;;;;;;;56.70;27.73;;;;;;;;;;4869889;29;20045;-92
2024/01/11 00:17:03;;;;;;;55.17;30.38;;;;;;;;;;4872407;29;20091;-92
2024/01/11 00:19:29;;;;;;;60.65;32.35;;;;;;;;;;4888317;29;20064;-93
2024/01/11 00:21:55;;;;;;;52.30;29.98;;;;;;;;;;4890804;29;20464;-94
2024/01/11 00:24:21;;;;;;;60.08;29.25;;;;;;;;;;4895277;29;20142;-92
2024/01/11 00:26:47;;;;;;;67.30;31.90;;;;;;;;;;4891343;29;20124;-93
2024/01/11 00:29:15;;;;;;;72.07;34.80;;;;;;;;;;4888790;29;20041;-92
2024/01/11 00:31:41;;;;;;;51.70;28.60;;;;;;;;;;4888094;29;20037;-93
2024/01/11 00:34:07;;;;;;;57.88;31.95;;;;;;;;;;4888894;29;20032;-93
2024/01/11 00:36:34;;;;;;;73.38;34.55;;;;;;;;;;4888166;29;20486;-94
2024/01/11 00:39:00;;;;;;;66.45;32.80;;;;;;;;;;4887815;29;20056;-92
2024/01/11 00:41:26;;;;;;;63.25;31.85;;;;;;;;;;4869883;29;20123;-91
2024/01/11 00:43:53;;;;;;;54.55;29.20;;;;;;;;;;4869354;29;20055;-93
2024/01/11 00:46:19;;;;;;;60.42;32.10;;;;;;;;;;4869824;29;20075;-92
2024/01/11 00:48:45;;;;;;;55.00;30.48;;;;;;;;;;4869522;29;20045;-92
2024/01/11 00:51:14;;;;;;;50.28;28.00;;;;;;;;;;4876586;29;20033;-92
2024/01/11 00:53:40;;;;;;;55.45;32.17;;;;;;;;;;4887991;29;20474;-92
2024/01/11 00:56:15;;;;;;;57.90;31.45;;;;;;;;;;4889076;29;20028;-92
2024/01/11 00:58:41;;;;;;;59.60;29.98;;;;;;;;;;4870538;29;20112;-92
2024/01/11 01:01:09;;;;;;;55.38;31.00;;;;;;;;;;4869230;29;20108;-91
2024/01/11 01:03:35;;;;;;;63.90;35.78;;;;;;;;;;4874019;29;20185;-92
2024/01/11 01:06:02;;;;;;;59.42;32.38;;;;;;;;;;4871007;29;20084;-91
2024/01/11 01:08:29;;;;;;;62.90;33.20;;;;;;;;;;4885016;29;20119;-91
2024/01/11 01:10:56;;;;;;;64.03;32.35;;;;;;;;;;4885699;29;20069;-93
2024/01/11 01:13:22;;;;;;;64.28;31.02;;;;;;;;;;4885287;29;20028;-92
2024/01/11 01:15:49;;;;;;;53.30;30.45;;;;;;;;;;4884055;29;20068;-92
2024/01/11 01:18:16;;;;;;;59.75;32.42;;;;;;;;;;4878735;29;20123;-93
2024/01/11 01:20:43;;;;;;;73.68;37.75;;;;;;;;;;4885486;29;20043;-93
2024/01/11 01:23:10;;;;;;;72.80;35.72;;;;;;;;;;4870490;29;20037;-94
2024/01/11 01:25:36;;;;;;;72.90;36.90;;;;;;;;;;4894751;29;20065;-90
2024/01/11 01:28:03;;;;;;;78.22;37.15;;;;;;;;;;4891378;29;20048;-92
2024/01/11 01:30:29;;;;;;;86.60;39.03;;;;;;;;;;4871013;29;20128;-90
2024/01/11 01:32:55;;;;;;;76.35;37.65;;;;;;;;;;4866973;29;20037;-92
2024/01/11 01:35:22;;;;;;;77.63;37.63;;;;;;;;;;4874703;29;20033;-92
2024/01/11 01:37:48;;;;;;;73.68;35.95;;;;;;;;;;4871698;29;20123;-92
2024/01/11 01:40:14;;;;;;;74.55;38.00;;;;;;;;;;4883673;29;20115;-93
2024/01/11 01:42:44;;;;;;;72.53;35.10;;;;;;;;;;4867698;29;20094;-92
2024/01/11 01:45:10;;;;;;;67.43;33.63;;;;;;;;;;4866500;29;20107;-91
2024/01/11 01:47:37;;;;;;;54.22;28.38;;;;;;;;;;4866586;29;20037;-92
2024/01/11 01:50:04;;;;;;;76.53;33.95;;;;;;;;;;4866292;29;20092;-92
2024/01/11 01:52:31;;;;;;;75.15;34.53;;;;;;;;;;4875160;29;20039;-92
2024/01/11 01:54:57;;;;;;;68.45;33.13;;;;;;;;;;4884620;29;20033;-94
2024/01/11 01:57:26;;;;;;;80.22;37.20;;;;;;;;;;4884369;29;20081;-92
2024/01/11 01:59:53;;;;;;;85.43;39.70;;;;;;;;;;4884963;29;20032;-92
2024/01/11 02:02:22;;;;;;;69.63;33.85;;;;;;;;;;4884221;29;20056;-91
2024/01/11 02:04:48;;;;;;;70.90;32.47;;;;;;;;;;4884519;29;20036;-93
2024/01/11 02:07:15;;;;;;;69.88;33.63;;;;;;;;;;4884073;29;20064;-92
2024/01/11 02:09:41;;;;;;;58.42;30.35;;;;;;;;;;4884382;29;20040;-92
2024/01/11 02:12:10;;;;;;;59.95;28.85;;;;;;;;;;4884398;29;20411;-92
2024/01/11 02:14:38;;;;;;;59.72;29.38;;;;;;;;;;4883101;29;20029;-92
2024/01/11 02:17:04;;;;;;;50.05;26.70;;;;;;;;;;4884025;29;20028;-93
2024/01/11 02:19:30;;;;;;;48.80;24.90;;;;;;;;;;4883696;29;20498;-92
2024/01/11 02:22:00;;;;;;;50.53;27.13;;;;;;;;;;4884094;29;20056;-93
2024/01/11 02:24:26;;;;;;;48.13;24.20;;;;;;;;;;4883923;29;20490;-92
2024/01/11 02:27:05;;;;;;;49.67;24.52;;;;;;;;;;4884188;29;20055;-93
2024/01/11 02:29:31;;;;;;;52.10;26.73;;;;;;;;;;4883735;29;20044;-94
2024/01/11 02:31:58;;;;;;;48.33;26.58;;;;;;;;;;4883925;29;20126;-93
2024/01/11 02:34:24;;;;;;;50.75;25.10;;;;;;;;;;4883959;29;20025;-93
2024/01/11 02:36:51;;;;;;;59.88;28.90;;;;;;;;;;4883448;29;20028;-93
2024/01/11 02:39:19;;;;;;;50.85;26.05;;;;;;;;;;4866023;29;20041;-93
2024/01/11 02:41:46;;;;;;;47.45;24.02;;;;;;;;;;4865059;29;20036;-91
2024/01/11 02:44:12;;;;;;;54.50;26.42;;;;;;;;;;4864950;29;20044;-95
2024/01/11 02:46:38;;;;;;;51.08;26.90;;;;;;;;;;4865180;29;20063;-92
2024/01/11 02:49:07;;;;;;;48.47;25.67;;;;;;;;;;4864960;29;20041;-93
2024/01/11 02:51:33;;;;;;;48.47;24.70;;;;;;;;;;4864885;29;20025;-93
2024/01/11 02:53:59;;;;;;;45.38;23.63;;;;;;;;;;4877694;29;20501;-94
2024/01/11 02:56:25;;;;;;;52.78;27.80;;;;;;;;;;4883860;29;20083;-93
2024/01/11 02:58:51;;;;;;;50.22;25.40;;;;;;;;;;4883614;29;20024;-91
2024/01/11 03:01:18;;;;;;;47.53;25.15;;;;;;;;;;4883104;29;20029;-91
2024/01/11 03:03:44;;;;;;;47.80;24.55;;;;;;;;;;4883283;29;20055;-91
2024/01/11 03:06:10;;;;;;;46.20;24.02;;;;;;;;;;4883115;29;20029;-91
2024/01/11 03:08:36;;;;;;;50.60;25.13;;;;;;;;;;4883117;29;20147;-89
2024/01/11 03:11:02;;;;;;;53.75;26.33;;;;;;;;;;4864290;29;20036;-90
2024/01/11 03:13:29;;;;;;;62.00;28.23;;;;;;;;;;4864318;29;20080;-91
2024/01/11 03:15:55;;;;;;;56.47;27.42;;;;;;;;;;4864176;29;20099;-92
2024/01/11 03:18:21;;;;;;;67.75;33.03;;;;;;;;;;4864207;29;20063;-92
2024/01/11 03:20:47;;;;;;;62.38;28.27;;;;;;;;;;4864559;29;20025;-90
2024/01/11 03:23:13;;;;;;;61.25;28.55;;;;;;;;;;4867897;29;20037;-92
2024/01/11 03:25:40;;;;;;;55.30;27.85;;;;;;;;;;4871413;29;20025;-90
2024/01/11 03:28:06;;;;;;;60.00;29.15;;;;;;;;;;4881334;29;20044;-91
2024/01/11 03:30:32;;;;;;;54.80;27.10;;;;;;;;;;4868127;29;20032;-89
2024/01/11 03:32:58;;;;;;;59.30;28.45;;;;;;;;;;4882609;29;20075;-90
2024/01/11 03:35:25;;;;;;;53.13;24.58;;;;;;;;;;4899510;29;20036;-92
2024/01/11 03:37:51;;;;;;;61.17;25.05;;;;;;;;;;4882941;29;20050;-91
2024/01/11 03:40:17;;;;;;;51.47;24.27;;;;;;;;;;4882736;29;20108;-91
2024/01/11 03:42:44;;;;;;;54.92;25.25;;;;;;;;;;4882652;29;20044;-91
2024/01/11 03:45:10;;;;;;;43.53;23.08;;;;;;;;;;4883316;29;20462;-91
2024/01/11 03:47:36;;;;;;;58.05;27.50;;;;;;;;;;4883879;29;20040;-91
2024/01/11 03:50:02;;;;;;;51.78;25.80;;;;;;;;;;4892715;29;20033;-92
2024/01/11 03:52:29;;;;;;;54.20;25.50;;;;;;;;;;4864506;29;20073;-90
2024/01/11 03:54:55;;;;;;;58.53;28.00;;;;;;;;;;4864721;29;20064;-91
2024/01/11 03:57:24;;;;;;;46.38;23.63;;;;;;;;;;4864082;29;20144;-91
2024/01/11 03:59:50;;;;;;;58.42;25.10;;;;;;;;;;4877455;29;20047;-92
2024/01/11 04:02:16;;;;;;;59.55;28.38;;;;;;;;;;4882572;29;20028;-92
2024/01/11 04:04:42;;;;;;;51.65;25.95;;;;;;;;;;4868050;29;20057;-91
2024/01/11 04:07:17;;;;;;;55.67;25.58;;;;;;;;;;4883219;29;20036;-93
2024/01/11 04:09:43;;;;;;;50.72;25.40;;;;;;;;;;4883868;29;20104;-91
2024/01/11 04:12:09;;;;;;;56.75;26.90;;;;;;;;;;4883205;29;20033;-91
2024/01/11 04:14:42;;;;;;;56.20;26.88;;;;;;;;;;4883937;29;20028;-91
2024/01/11 04:17:08;;;;;;;64.15;27.55;;;;;;;;;;4882406;29;20063;-91
2024/01/11 04:19:34;;;;;;;54.03;27.08;;;;;;;;;;4882780;29;20072;-91
2024/01/11 04:22:00;;;;;;;54.35;26.30;;;;;;;;;;4883185;29;20036;-91
2024/01/11 04:24:26;;;;;;;59.13;27.83;;;;;;;;;;4883186;29;20044;-92
2024/01/11 04:26:52;;;;;;;57.88;27.88;;;;;;;;;;4884751;29;20029;-92
2024/01/11 04:29:18;;;;;;;56.00;25.85;;;;;;;;;;4883757;29;20076;-92
2024/01/11 04:31:45;;;;;;;57.45;25.95;;;;;;;;;;4897415;29;20017;-90
2024/01/11 04:34:11;;;;;;;57.45;27.60;;;;;;;;;;4904473;29;20100;-91
2024/01/11 04:36:40;;;;;;;60.47;27.52;;;;;;;;;;4871375;29;20100;-93
2024/01/11 04:39:07;;;;;;;68.93;28.08;;;;;;;;;;4867989;29;20033;-92
2024/01/11 04:41:34;;;;;;;53.65;26.42;;;;;;;;;;4867494;29;20021;-91
2024/01/11 04:44:00;;;;;;;61.15;30.05;;;;;;;;;;4867081;29;20177;-92
2024/01/11 04:46:27;;;;;;;64.85;29.73;;;;;;;;;;4867027;29;20033;-91
2024/01/11 04:48:53;;;;;;;66.18;30.40;;;;;;;;;;4881249;29;20044;-93
2024/01/11 04:51:20;;;;;;;55.50;27.52;;;;;;;;;;4885543;29;20066;-92
2024/01/11 04:53:47;;;;;;;69.07;28.45;;;;;;;;;;4885479;29;20035;-92
2024/01/11 04:56:14;;;;;;;61.13;28.50;;;;;;;;;;4885539;29;20037;-91
2024/01/11 04:58:42;;;;;;;64.97;28.48;;;;;;;;;;4885374;29;20037;-91
2024/01/11 05:01:12;;;;;;;54.03;25.98;;;;;;;;;;4885528;29;20043;-91
2024/01/11 05:03:38;;;;;;;57.85;27.58;;;;;;;;;;4886225;29;20037;-92
2024/01/11 05:06:04;;;;;;;52.50;28.67;;;;;;;;;;4885409;29;20033;-91
2024/01/11 05:08:31;;;;;;;55.00;28.83;;;;;;;;;;4885144;29;20044;-92
2024/01/11 05:10:57;;;;;;;60.67;28.80;;;;;;;;;;4885669;29;20466;-92
2024/01/11 05:13:23;;;;;;;52.20;26.10;;;;;;;;;;4885417;29;20032;-90
2024/01/11 05:15:49;;;;;;;59.03;27.27;;;;;;;;;;4885196;29;20035;-91
2024/01/11 05:18:15;;;;;;;57.88;28.42;;;;;;;;;;4885198;29;20035;-92
2024/01/11 05:20:42;;;;;;;59.05;27.65;;;;;;;;;;4885408;29;20092;-91
2024/01/11 05:23:08;;;;;;;69.50;30.45;;;;;;;;;;4872776;29;20041;-91
2024/01/11 05:25:34;;;;;;;61.00;29.05;;;;;;;;;;4866535;29;20029;-92
2024/01/11 05:28:00;;;;;;;56.28;27.40;;;;;;;;;;4884509;29;20100;-91
2024/01/11 05:30:27;;;;;;;57.42;26.83;;;;;;;;;;4884763;29;20549;-90
2024/01/11 05:32:53;;;;;;;67.55;31.15;;;;;;;;;;4885187;29;20037;-90
2024/01/11 05:35:20;;;;;;;74.22;31.60;;;;;;;;;;4891843;29;20496;-89
2024/01/11 05:37:46;;;;;;;184.85;48.65;;;;;;;;;;4874197;29;20101;-91
2024/01/11 05:40:12;;;;;;;85.43;33.47;;;;;;;;;;4866358;29;20122;-91
2024/01/11 05:42:38;;;;;;;67.00;30.83;;;;;;;;;;4865856;29;20501;-91
2024/01/11 05:45:05;;;;;;;52.92;28.42;;;;;;;;;;4874696;29;20036;-92
2024/01/11 05:47:31;;;;;;;52.22;26.92;;;;;;;;;;4884129;29;20029;-91
2024/01/11 05:49:57;;;;;;;64.00;28.08;;;;;;;;;;4885007;29;20363;-93
2024/01/11 05:52:24;;;;;;;53.72;28.00;;;;;;;;;;4885081;29;20040;-89
2024/01/11 05:54:50;;;;;;;64.72;28.55;;;;;;;;;;4884733;29;20039;-91
2024/01/11 05:57:16;;;;;;;66.28;28.88;;;;;;;;;;4884244;29;20032;-92
2024/01/11 05:59:45;;;;;;;66.60;30.92;;;;;;;;;;4884830;29;20036;-92
2024/01/11 06:02:13;;;;;;;58.17;28.90;;;;;;;;;;4884159;29;20084;-91
2024/01/11 06:04:39;;;;;;;66.72;30.52;;;;;;;;;;4901259;29;20028;-91
2024/01/11 06:07:05;;;;;;;63.55;29.45;;;;;;;;;;4884799;29;20036;-91
2024/01/11 06:09:31;;;;;;;65.65;29.63;;;;;;;;;;4884687;29;20037;-89
2024/01/11 06:11:57;;;;;;;64.22;30.17;;;;;;;;;;4884464;29;20497;-91
2024/01/11 06:14:23;;;;;;;65.25;29.25;;;;;;;;;;4884734;29;20036;-91
2024/01/11 06:16:49;;;;;;;72.53;29.35;;;;;;;;;;4907115;29;20012;-90
2024/01/11 06:19:16;;;;;;;58.65;27.45;;;;;;;;;;4906317;29;20036;-92
2024/01/11 06:24:54;;;;;;;67.38;31.00;;;;;;;;;;5035240;23;20109;-93
2024/01/11 06:30:39;;;;;;;66.43;30.35;;;;;;;;;;4901486;29;20416;-91
2024/01/11 06:33:05;;;;;;;64.95;27.17;;;;;;;;;;4791280;29;20034;-92
2024/01/11 06:35:31;;;;;;;66.15;27.70;;;;;;;;;;4803578;29;20159;-90
2024/01/11 06:37:57;;;;;;;73.10;30.55;;;;;;;;;;4883286;29;20025;-91
2024/01/11 06:40:24;;;;;;;81.93;36.25;;;;;;;;;;4883438;29;20080;-94
2024/01/11 06:42:50;;;;;;;96.07;39.00;;;;;;;;;;4883616;29;20464;-93
2024/01/11 06:45:16;;;;;;;71.82;33.03;;;;;;;;;;4883417;29;20033;-91
2024/01/11 06:47:44;;;;;;;62.53;29.15;;;;;;;;;;4883148;29;20040;-90
2024/01/11 06:50:12;;;;;;;69.78;30.40;;;;;;;;;;4883407;29;20029;-90
2024/01/11 06:52:38;;;;;;;58.00;27.67;;;;;;;;;;4883537;29;20028;-91
2024/01/11 06:55:05;;;;;;;65.05;32.40;;;;;;;;;;4883421;29;20040;-90
2024/01/11 06:57:31;;;;;;;68.40;30.63;;;;;;;;;;4880646;29;20025;-92
2024/01/11 06:59:57;;;;;;;70.68;32.15;;;;;;;;;;4863908;29;20482;-91
2024/01/11 07:02:23;;;;;;;65.65;31.38;;;;;;;;;;4864551;29;20029;-91
2024/01/11 07:04:50;;;;;;;74.82;33.35;;;;;;;;;;4864288;29;20033;-90
2024/01/11 07:07:16;;;;;;;72.45;31.75;;;;;;;;;;4879588;29;20031;-92
2024/01/11 07:09:42;;;;;;;60.97;30.08;;;;;;;;;;4883173;29;20044;-90
2024/01/11 07:12:08;;;;;;;60.70;29.85;;;;;;;;;;4883251;29;20044;-92
2024/01/11 07:14:34;;;;;;;63.55;30.98;;;;;;;;;;4882923;29;20032;-92
2024/01/11 07:17:00;;;;;;;76.88;34.70;;;;;;;;;;4878493;29;20033;-93
2024/01/11 09:18:52;;;;;;;35.90;28.55;;;;;;;;;;5992167;23;20067;31
2024/01/11 09:21:18;;;;;;;36.55;27.25;;;;;;;;;;4861616;29;20050;-95
2024/01/11 09:23:44;;;;;;;29.13;23.02;;;;;;;;;;4872233;29;20545;-94
2024/01/11 09:26:13;;;;;;;28.35;22.20;;;;;;;;;;4867288;29;20029;-94
2024/01/11 09:28:39;;;;;;;29.25;23.20;;;;;;;;;;4867284;29;20037;-95
2024/01/11 09:31:06;;;;;;;32.75;22.92;;;;;;;;;;4867517;29;20029;-93
2024/01/11 09:36:08;;;;;;;28.25;23.92;;;;;;;;;;4882499;29;20057;-94
2024/01/11 09:38:34;;;;;;;28.35;23.15;;;;;;;;;;4876589;29;20025;-95
2024/01/11 09:41:07;;;;;;;27.33;21.90;;;;;;;;;;4903162;29;20036;-94
2024/01/11 09:43:34;;;;;;;31.05;24.92;;;;;;;;;;4885629;29;20111;-94
2024/01/11 09:46:01;;;;;;;28.58;23.27;;;;;;;;;;4894788;29;20027;-95
2024/01/11 09:48:27;;;;;;;24.73;20.88;;;;;;;;;;4908506;29;20029;-93
2024/01/11 09:50:57;;;;;;;27.95;22.00;;;;;;;;;;4896955;29;20060;-94
2024/01/11 09:53:24;;;;;;;25.38;21.20;;;;;;;;;;4884793;29;20032;-94
2024/01/11 09:55:51;;;;;;;25.30;20.50;;;;;;;;;;4884771;29;20032;-94
2024/01/11 09:58:18;;;;;;;23.30;19.45;;;;;;;;;;4884968;29;20028;-93
2024/01/11 10:00:45;;;;;;;26.33;20.17;;;;;;;;;;4886035;29;20116;-93
2024/01/11 10:03:11;;;;;;;26.25;20.45;;;;;;;;;;4885245;29;20035;-93
2024/01/11 10:05:38;;;;;;;24.65;20.38;;;;;;;;;;4884784;29;20032;-93
2024/01/11 10:08:04;;;;;;;24.60;19.88;;;;;;;;;;4884134;29;20033;-93
2024/01/11 10:10:31;;;;;;;26.95;21.95;;;;;;;;;;4884340;29;20060;-94
2024/01/11 10:12:57;;;;;;;27.98;23.02;;;;;;;;;;4885503;29;20031;-94
2024/01/11 10:15:25;;;;;;;25.52;20.30;;;;;;;;;;4884881;29;20033;-94
2024/01/11 10:17:51;;;;;;;26.30;21.05;;;;;;;;;;4884100;29;20514;-95
2024/01/11 10:20:23;;;;;;;29.13;23.02;;;;;;;;;;4883981;29;20029;-95
2024/01/11 10:22:50;;;;;;;27.25;22.20;;;;;;;;;;4884986;29;20067;-94
2024/01/11 10:25:17;;;;;;;28.17;21.35;;;;;;;;;;4886061;29;20427;-92
2024/01/11 10:27:45;;;;;;;27.10;22.13;;;;;;;;;;4886023;29;20025;-93
2024/01/11 10:30:13;;;;;;;29.10;23.67;;;;;;;;;;4883705;29;20181;-92
2024/01/11 10:32:39;;;;;;;26.75;21.67;;;;;;;;;;4884043;29;20035;-93
2024/01/11 10:35:09;;;;;;;28.52;21.25;;;;;;;;;;4883271;29;20447;-92
2024/01/11 10:37:38;;;;;;;26.85;21.42;;;;;;;;;;4884174;29;20028;-92
2024/01/11 10:40:15;;;;;;;28.85;22.35;;;;;;;;;;4883888;29;20084;-92
2024/01/11 10:42:45;;;;;;;27.58;21.60;;;;;;;;;;4883714;29;20036;-93
2024/01/11 10:45:18;;;;;;;27.10;21.75;;;;;;;;;;4883554;29;20267;-94
2024/01/11 10:47:51;;;;;;;27.90;22.73;;;;;;;;;;4883543;29;20364;-94
2024/01/11 10:50:19;;;;;;;26.88;20.77;;;;;;;;;;4883633;29;20047;-93
2024/01/11 10:52:51;;;;;;;30.08;24.65;;;;;;;;;;4883156;29;20028;-94
2024/01/11 10:55:18;;;;;;;30.88;23.35;;;;;;;;;;4883524;29;20028;-94
2024/01/11 10:57:46;;;;;;;33.92;23.67;;;;;;;;;;4883149;29;20067;-91
2024/01/11 11:00:12;;;;;;;31.25;22.92;;;;;;;;;;4883060;29;20040;-91
2024/01/11 11:02:39;;;;;;;29.45;23.95;;;;;;;;;;4883389;29;20032;-92
2024/01/11 11:05:06;;;;;;;33.60;24.88;;;;;;;;;;4883679;29;20036;-93
2024/01/11 11:07:38;;;;;;;32.45;25.38;;;;;;;;;;4882960;29;20060;-93
2024/01/11 11:10:13;;;;;;;30.98;22.70;;;;;;;;;;4882811;29;20545;-93
2024/01/11 11:12:48;;;;;;;31.25;23.52;;;;;;;;;;4883181;29;20068;-93
2024/01/11 11:15:17;;;;;;;27.35;20.10;;;;;;;;;;4883192;29;20060;-93
2024/01/11 11:17:53;;;;;;;29.23;22.60;;;;;;;;;;4882971;29;20394;-93
2024/01/11 11:20:22;;;;;;;29.02;23.27;;;;;;;;;;4882931;29;20119;-92
2024/01/11 11:23:17;;;;;;;32.17;25.75;;;;;;;;;;4882683;29;20028;-93
2024/01/11 11:25:48;;;;;;;32.25;25.75;;;;;;;;;;4881231;29;20450;-92
2024/01/11 11:28:15;;;;;;;33.13;23.75;;;;;;;;;;4882723;29;20103;-93
2024/01/11 11:30:42;;;;;;;34.20;26.13;;;;;;;;;;4887046;29;20029;-92
2024/01/11 11:33:18;;;;;;;33.20;25.15;;;;;;;;;;4906389;29;20029;-90
2024/01/11 11:35:46;;;;;;;32.65;26.00;;;;;;;;;;4899781;29;20057;-95
2024/01/11 11:38:19;;;;;;;31.23;23.17;;;;;;;;;;4882873;29;20025;-93
2024/01/11 11:40:47;;;;;;;33.38;22.77;;;;;;;;;;4882756;29;20033;-93
2024/01/11 11:43:20;;;;;;;34.50;24.17;;;;;;;;;;4882584;29;20128;-93
2024/01/11 11:45:50;;;;;;;30.20;21.20;;;;;;;;;;4882314;29;20509;-92
2024/01/11 11:48:40;;;;;;;33.55;22.63;;;;;;;;;;4882324;29;20037;-93
2024/01/11 11:51:13;;;;;;;33.95;22.27;;;;;;;;;;4882683;29;20037;-94
2024/01/11 11:53:40;;;;;;;41.40;20.40;;;;;;;;;;4882043;29;20080;-92
2024/01/11 11:56:16;;;;;;;32.72;20.70;;;;;;;;;;4881886;29;20036;-93
2024/01/11 11:58:43;;;;;;;35.10;21.52;;;;;;;;;;4882361;29;20084;-93
2024/01/11 12:01:09;;;;;;;38.83;22.30;;;;;;;;;;4882099;29;20127;-93
2024/01/11 12:03:37;;;;;;;36.03;19.55;;;;;;;;;;4883934;29;20133;-92
2024/01/11 12:06:03;;;;;;;28.25;16.73;;;;;;;;;;4883931;29;20043;-92
2024/01/11 12:08:31;;;;;;;30.40;18.90;;;;;;;;;;4900303;29;20041;-92
2024/01/11 12:10:57;;;;;;;27.23;16.00;;;;;;;;;;4882829;29;20523;-92
2024/01/11 12:13:24;;;;;;;31.15;17.88;;;;;;;;;;4882331;29;20068;-92
2024/01/11 12:15:50;;;;;;;30.13;17.02;;;;;;;;;;4882326;29;20021;-92
2024/01/11 12:18:17;;;;;;;36.83;18.42;;;;;;;;;;4882461;29;20039;-91
2024/01/11 12:20:43;;;;;;;35.22;19.38;;;;;;;;;;4881976;29;20493;-92
2024/01/11 12:23:09;;;;;;;32.25;18.00;;;;;;;;;;4881955;29;20040;-92
2024/01/11 12:25:36;;;;;;;37.30;18.27;;;;;;;;;;4882157;29;20031;-92
2024/01/11 12:28:02;;;;;;;35.90;19.08;;;;;;;;;;4882570;29;20040;-92
2024/01/11 12:30:31;;;;;;;30.02;17.50;;;;;;;;;;4882069;29;20123;-92
2024/01/11 12:32:57;;;;;;;34.85;18.80;;;;;;;;;;4882053;29;20025;-92
2024/01/11 12:35:24;;;;;;;32.88;17.92;;;;;;;;;;4881918;29;20053;-92
2024/01/11 12:37:59;;;;;;;31.38;19.42;;;;;;;;;;4882090;29;20037;-91
2024/01/11 12:40:27;;;;;;;38.55;21.40;;;;;;;;;;4883832;29;20037;-91
2024/01/11 12:42:53;;;;;;;25.17;14.07;;;;;;;;;;4883193;29;20048;-92
2024/01/11 12:45:25;;;;;;;21.05;11.82;;;;;;;;;;4882660;29;20087;-91
2024/01/11 12:47:51;;;;;;;21.52;11.68;;;;;;;;;;4882284;29;20039;-91
2024/01/11 12:50:18;;;;;;;18.63;11.45;;;;;;;;;;4882160;29;20056;-91
2024/01/11 12:52:44;;;;;;;23.13;12.35;;;;;;;;;;4883550;29;20059;-91
2024/01/11 12:55:19;;;;;;;25.65;13.32;;;;;;;;;;4883228;29;20086;-91
2024/01/11 12:57:45;;;;;;;26.13;15.20;;;;;;;;;;4882960;29;20056;-91
2024/01/11 13:00:12;;;;;;;22.42;14.32;;;;;;;;;;4886056;29;20478;-91
2024/01/11 13:02:38;;;;;;;25.73;16.40;;;;;;;;;;4886008;29;20056;-91
2024/01/11 13:05:04;;;;;;;48.35;24.55;;;;;;;;;;4887274;29;20041;-91
2024/01/11 13:07:37;;;;;;;24.65;15.93;;;;;;;;;;4903117;29;20032;-90
2024/01/11 13:10:04;;;;;;;32.58;17.65;;;;;;;;;;4885032;29;20112;-93
2024/01/11 13:12:30;;;;;;;24.25;15.40;;;;;;;;;;4886247;29;20029;-92
2024/01/11 13:14:56;;;;;;;23.83;15.18;;;;;;;;;;4886573;29;20029;-92
2024/01/11 13:17:23;;;;;;;35.92;21.90;;;;;;;;;;4903217;29;20055;-91
2024/01/11 13:19:49;;;;;;;33.85;18.35;;;;;;;;;;4908159;29;20068;-92
2024/01/11 13:22:15;;;;;;;37.28;21.20;;;;;;;;;;4888836;29;20504;-92
2024/01/11 13:24:41;;;;;;;31.08;17.73;;;;;;;;;;4884865;29;20454;-92
2024/01/11 13:30:11;;;;;;;28.23;15.67;;;;;;;;;;4901516;29;20149;-92
2024/01/11 13:32:37;;;;;;;30.10;18.13;;;;;;;;;;4884808;29;20029;-92
2024/01/11 13:35:03;;;;;;;30.15;16.63;;;;;;;;;;4884566;29;20076;-91
2024/01/11 13:37:30;;;;;;;28.45;16.52;;;;;;;;;;4884922;29;20084;-92
2024/01/11 13:39:56;;;;;;;33.03;17.42;;;;;;;;;;4884731;29;20541;-92
2024/01/11 13:42:22;;;;;;;27.20;16.17;;;;;;;;;;4884293;29;20037;-92
2024/01/11 13:44:48;;;;;;;30.85;15.55;;;;;;;;;;4884619;29;20049;-92
2024/01/11 13:47:14;;;;;;;27.20;15.32;;;;;;;;;;4884441;29;20040;-92
2024/01/11 13:49:40;;;;;;;27.58;16.63;;;;;;;;;;4884602;29;20406;-91
2024/01/11 13:52:06;;;;;;;27.05;14.88;;;;;;;;;;4885004;29;20093;-92
2024/01/11 13:54:32;;;;;;;30.50;18.77;;;;;;;;;;4884387;29;20060;-92
2024/01/11 13:57:00;;;;;;;28.23;15.93;;;;;;;;;;4884411;29;20024;-92
2024/01/11 13:59:26;;;;;;;25.83;16.50;;;;;;;;;;4884218;29;20040;-93
2024/01/11 14:01:52;;;;;;;49.45;24.13;;;;;;;;;;4884542;29;20107;-91
2024/01/11 14:04:18;;;;;;;41.65;23.10;;;;;;;;;;4883976;29;20127;-92
2024/01/11 14:06:45;;;;;;;29.80;18.73;;;;;;;;;;4884200;29;20073;-93
2024/01/11 14:09:15;;;;;;;27.77;17.63;;;;;;;;;;4900594;29;20048;-92
2024/01/11 14:11:41;;;;;;;26.10;18.58;;;;;;;;;;4884613;29;20028;-92
2024/01/11 14:14:07;;;;;;;29.38;18.90;;;;;;;;;;4883714;29;20409;-94
2024/01/11 14:16:33;;;;;;;28.42;17.40;;;;;;;;;;4884045;29;20037;-92
2024/01/11 14:19:02;;;;;;;30.27;18.98;;;;;;;;;;4884141;29;20034;-94
2024/01/11 14:21:28;;;;;;;35.58;19.55;;;;;;;;;;4885454;29;20119;-92
2024/01/11 14:23:55;;;;;;;34.83;21.10;;;;;;;;;;4883933;29;20036;-94
2024/01/11 14:26:21;;;;;;;30.27;21.65;;;;;;;;;;4883773;29;20081;-92
2024/01/11 14:28:47;;;;;;;34.67;20.33;;;;;;;;;;4883743;29;20049;-92
2024/01/11 14:31:39;;;;;;;40.97;22.88;;;;;;;;;;4883761;29;20021;-96
2024/01/11 14:34:05;;;;;;;34.33;24.73;;;;;;;;;;4883711;29;20108;-93
2024/01/11 14:36:31;;;;;;;35.15;26.50;;;;;;;;;;4883578;29;20060;-91
2024/01/11 14:38:57;;;;;;;32.72;24.40;;;;;;;;;;4883913;29;20039;-94
2024/01/11 14:41:23;;;;;;;32.72;24.35;;;;;;;;;;4883425;29;20076;-92
2024/01/11 14:43:49;;;;;;;34.45;25.88;;;;;;;;;;4883634;29;20046;-90
2024/01/11 14:46:15;;;;;;;31.85;25.75;;;;;;;;;;4883629;29;20036;-92
2024/01/11 14:48:41;;;;;;;34.10;27.17;;;;;;;;;;4883192;29;20036;-91
2024/01/11 14:51:08;;;;;;;35.17;27.88;;;;;;;;;;4883463;29;20470;-91
2024/01/11 14:53:34;;;;;;;35.95;26.30;;;;;;;;;;4883810;29;20036;-95
2024/01/11 14:56:00;;;;;;;31.98;25.45;;;;;;;;;;4884328;29;20039;-92
2024/01/11 14:58:26;;;;;;;35.38;25.00;;;;;;;;;;4883523;29;20032;-93
2024/01/11 15:00:53;;;;;;;35.72;25.20;;;;;;;;;;4885964;29;20024;-91
2024/01/11 15:03:19;;;;;;;32.85;24.92;;;;;;;;;;4906786;29;20021;-90
2024/01/11 15:05:45;;;;;;;37.60;26.95;;;;;;;;;;4901805;29;20474;-94
2024/01/11 15:08:11;;;;;;;31.80;25.75;;;;;;;;;;4883115;29;20104;-92
2024/01/11 15:10:37;;;;;;;35.63;26.45;;;;;;;;;;4883046;29;20040;-94
2024/01/11 15:13:04;;;;;;;35.60;24.10;;;;;;;;;;4883640;29;20504;-93
2024/01/11 15:15:30;;;;;;;38.35;26.33;;;;;;;;;;4883462;29;20033;-91
2024/01/11 15:17:56;;;;;;;30.35;26.02;;;;;;;;;;4899951;29;20540;-94
2024/01/11 15:20:22;;;;;;;35.95;25.05;;;;;;;;;;4883942;29;20593;-90
2024/01/11 15:22:48;;;;;;;35.88;26.30;;;;;;;;;;4882279;29;20033;-93
2024/01/11 15:25:14;;;;;;;37.38;26.58;;;;;;;;;;4882541;29;20025;-90
2024/01/11 15:27:41;;;;;;;24.80;20.90;;;;;;;;;;4882680;29;20181;-89
2024/01/11 15:30:08;;;;;;;25.73;23.02;;;;;;;;;;4882468;29;20063;-89
2024/01/11 15:32:34;;;;;;;27.23;22.67;;;;;;;;;;4882902;29;20089;-90
2024/01/11 15:35:00;;;;;;;34.67;24.02;;;;;;;;;;4882330;29;20056;-90
2024/01/11 15:37:28;;;;;;;28.35;22.85;;;;;;;;;;4882489;29;20525;-92
2024/01/11 15:39:55;;;;;;;32.58;24.13;;;;;;;;;;4882349;29;20833;-95
2024/01/11 15:42:23;;;;;;;28.52;23.35;;;;;;;;;;4882203;29;20052;-92
2024/01/11 15:44:49;;;;;;;77.47;38.53;;;;;;;;;;4883348;29;20060;-95
2024/01/11 15:47:16;;;;;;;57.50;33.28;;;;;;;;;;4882843;29;20056;-92
2024/01/11 15:49:42;;;;;;;45.72;28.20;;;;;;;;;;4882236;29;20068;-92
2024/01/11 15:52:08;;;;;;;32.78;22.33;;;;;;;;;;4882590;29;20033;-92
2024/01/11 15:54:34;;;;;;;30.85;21.88;;;;;;;;;;4882261;29;20477;-95
2024/01/11 15:57:00;;;;;;;30.70;22.35;;;;;;;;;;4882576;29;20029;-93
2024/01/11 15:59:27;;;;;;;32.03;22.73;;;;;;;;;;4882427;29;20036;-91
2024/01/11 16:01:54;;;;;;;43.63;25.55;;;;;;;;;;4882399;29;20088;-93
2024/01/11 16:04:20;;;;;;;35.40;24.25;;;;;;;;;;4882346;29;20028;-95
2024/01/11 16:06:46;;;;;;;34.17;22.60;;;;;;;;;;4882178;29;20033;-92
2024/01/11 16:09:14;;;;;;;35.65;22.02;;;;;;;;;;4882422;29;20036;-92
2024/01/11 16:11:41;;;;;;;29.27;19.20;;;;;;;;;;4882274;29;20036;-92
2024/01/11 16:14:07;;;;;;;36.47;21.58;;;;;;;;;;4882388;29;20541;-93
2024/01/11 16:16:34;;;;;;;34.80;20.10;;;;;;;;;;4882292;29;20036;-93
2024/01/11 16:19:00;;;;;;;34.00;20.50;;;;;;;;;;4882227;29;20037;-91
2024/01/11 16:21:28;;;;;;;35.97;20.45;;;;;;;;;;4882258;29;20063;-93
2024/01/11 16:23:58;;;;;;;34.03;21.40;;;;;;;;;;4882576;29;20032;-92
2024/01/11 16:26:24;;;;;;;38.53;19.23;;;;;;;;;;4882277;29;20035;-91
2024/01/11 16:28:51;;;;;;;36.90;21.73;;;;;;;;;;4882358;29;20549;-91